Time;durP1;ratioP1;P1;durP2;ratioP2;P2;SDS_P1;SDS_P2;PMS_P1;PMS_P2;Temp;Humidity;BMP_temperature;BMP_pressure;BME280_temperature;BME280_humidity;BME280_pressure;Samples;Min_cycle;Max_cycle;Signal;HPM_P1;HPM_P2
2022/01/13 00:36:11;335999.00;1.12;579.80;9496.00;0.03;17.08;;;;;7.50;1.00;;;;;;2495119;55;3630;31
2022/01/13 01:01:00;659804.00;2.20;1137.60;17545.00;0.06;31.02;;;;;8.40;1.00;;;;;;2270949;61;905;-88
2022/01/13 01:05:56;600161.00;2.00;1034.50;11747.00;0.04;20.98;;;;;8.70;1.00;;;;;;2492698;41;3463;31
2022/01/13 01:08:23;905764.00;3.02;1566.25;45143.00;0.15;78.79;;;;;8.30;1.00;;;;;;2492774;41;3625;31
2022/01/13 01:20:50;1054701.00;3.52;1829.60;0.00;0.00;0.62;;;;;6.20;1.00;;;;;;2492076;55;3610;31
2022/01/13 01:28:18;144189.00;0.48;249.79;0.00;0.00;0.62;;;;;5.10;1.00;;;;;;2492742;55;3644;31
2022/01/13 01:40:38;163532.00;0.55;283.12;0.00;0.00;0.62;;;;;5.30;1.00;;;;;;2491467;55;3577;31
2022/01/13 01:43:05;138325.00;0.46;239.68;0.00;0.00;0.62;;;;;5.70;1.00;;;;;;2490995;55;4038;31
2022/01/13 02:02:48;157857.00;0.53;273.35;0.00;0.00;0.62;;;;;5.70;1.00;;;;;;2271233;61;907;-89
2022/01/13 02:07:42;115955.00;0.39;201.10;0.00;0.00;0.62;;;;;5.00;1.00;;;;;;2491974;55;3591;31
2022/01/13 02:12:42;959123.00;3.20;1660.21;0.00;0.00;0.62;;;;;3.80;1.00;;;;;;2265968;61;1157;-85
2022/01/13 02:15:34;440337.00;1.47;759.16;0.00;0.00;0.62;;;;;3.20;1.00;;;;;;2263655;61;1096;-85
2022/01/13 02:18:09;608993.00;2.03;1049.75;0.00;0.00;0.62;;;;;2.50;1.00;;;;;;2259998;61;2021;-85
2022/01/13 02:20:50;737637.00;2.46;1272.57;31295.00;0.10;54.82;;;;;2.30;1.00;;;;;;2256001;61;1334;-85
2022/01/13 02:23:36;602149.00;2.01;1037.93;0.00;0.00;0.62;;;;;2.60;1.00;;;;;;2252901;61;1176;-85
2022/01/13 02:26:04;570673.00;1.90;983.61;0.00;0.00;0.62;;;;;3.30;1.00;;;;;;2263727;61;1121;-86
2022/01/13 02:28:32;700076.00;2.33;1207.37;20375.00;0.07;35.92;;;;;4.40;1.00;;;;;;2263739;61;1155;-86
2022/01/13 02:31:00;528047.00;1.76;910.13;0.00;0.00;0.62;;;;;4.80;1.00;;;;;;2263531;61;1541;-86
2022/01/13 02:33:27;561890.00;1.87;968.46;0.00;0.00;0.62;;;;;4.80;1.00;;;;;;2263952;61;1648;-86
2022/01/13 02:35:57;680424.00;2.27;1173.31;0.00;0.00;0.62;;;;;4.60;1.00;;;;;;2253165;61;1193;-86
2022/01/13 02:38:24;442383.00;1.47;762.68;0.00;0.00;0.62;;;;;4.90;1.00;;;;;;2263789;61;1936;-86
2022/01/13 02:40:58;525237.00;1.75;905.29;0.00;0.00;0.62;;;;;5.40;1.00;;;;;;2257165;61;1580;-86
2022/01/13 02:43:29;386409.00;1.29;666.44;0.00;0.00;0.62;;;;;5.90;1.00;;;;;;2253666;61;1265;-86
2022/01/13 02:46:18;495274.00;1.65;853.69;0.00;0.00;0.62;;;;;6.20;1.00;;;;;;2253395;61;1803;-87
2022/01/13 02:48:48;562963.00;1.88;970.31;0.00;0.00;0.62;;;;;5.80;1.00;;;;;;2253952;61;1663;-87
2022/01/13 02:51:19;538370.00;1.79;927.91;0.00;0.00;0.62;;;;;6.10;1.00;;;;;;2253945;61;1592;-86
2022/01/13 02:53:48;580079.00;1.93;999.84;0.00;0.00;0.62;;;;;6.40;1.00;;;;;;2253842;61;1653;-87
2022/01/13 02:56:15;452731.00;1.51;780.48;0.00;0.00;0.62;;;;;6.70;1.00;;;;;;2247035;61;1156;-85
2022/01/13 02:58:45;536547.00;1.79;924.77;0.00;0.00;0.62;;;;;6.30;1.00;;;;;;2257108;61;1924;-87
2022/01/13 03:01:16;291265.00;0.97;502.90;0.00;0.00;0.62;;;;;6.10;1.00;;;;;;2265043;61;1675;-87
2022/01/13 03:03:47;316527.00;1.06;546.33;0.00;0.00;0.62;;;;;6.60;1.00;;;;;;2265455;61;1057;-87
2022/01/13 03:06:21;578311.00;1.93;996.78;0.00;0.00;0.62;;;;;6.90;1.00;;;;;;2265319;61;1158;-87
2022/01/13 03:08:54;401180.00;1.34;691.83;0.00;0.00;0.62;;;;;7.10;1.00;;;;;;2258650;61;1125;-87
2022/01/13 03:11:33;619763.00;2.07;1068.36;100301.00;0.33;174.09;;;;;7.20;1.00;;;;;;2265155;61;1236;-87
2022/01/13 03:16:44;902865.00;3.01;1561.15;95762.00;0.32;166.26;;;;;7.80;1.00;;;;;;2251559;61;2003;-85
2022/01/13 03:19:12;838719.00;2.80;1448.74;0.00;0.00;0.62;;;;;7.70;1.00;;;;;;2251547;61;1318;-85
2022/01/13 03:21:40;665532.00;2.22;1147.52;0.00;0.00;0.62;;;;;7.50;1.00;;;;;;2251713;61;1013;-86
2022/01/13 03:24:11;833342.00;2.78;1439.34;0.00;0.00;0.62;;;;;7.40;1.00;;;;;;2252152;61;1706;-84
2022/01/13 03:26:39;747414.00;2.49;1289.56;0.00;0.00;0.62;;;;;6.80;1.00;;;;;;2244204;62;1057;-84
2022/01/13 03:29:15;756606.00;2.52;1305.55;0.00;0.00;0.62;;;;;5.80;1.00;;;;;;2244175;62;1565;-85
2022/01/13 03:31:44;885553.00;2.95;1530.76;0.00;0.00;0.62;;;;;5.80;1.00;;;;;;2243828;62;1192;-86
2022/01/13 03:34:13;119780032.00;399.27;69615416.00;0.00;0.00;0.62;;;;;5.10;1.00;;;;;;2243135;62;1112;-86
2022/01/13 03:36:43;732826.00;2.44;1264.21;0.00;0.00;0.62;;;;;4.10;1.00;;;;;;2242513;62;2009;-87
2022/01/13 03:39:13;634303.00;2.11;1093.49;0.00;0.00;0.62;;;;;3.30;1.00;;;;;;2237546;62;1411;-86
2022/01/13 03:41:41;363754.00;1.21;627.50;0.00;0.00;0.62;;;;;2.90;1.00;;;;;;2237617;62;1138;-87
2022/01/13 03:44:17;482782.00;1.61;832.19;0.00;0.00;0.62;;;;;2.60;1.00;;;;;;2239689;62;1189;-87
2022/01/13 03:46:50;509316.00;1.70;877.86;0.00;0.00;0.62;;;;;2.00;1.00;;;;;;2237669;61;1148;-87
2022/01/13 03:49:20;596718.00;1.99;1028.55;0.00;0.00;0.62;;;;;1.30;1.00;;;;;;2257714;61;1661;-87
2022/01/13 03:52:50;470161.00;1.57;810.47;0.00;0.00;0.62;;;;;1.60;1.00;;;;;;2257626;61;1081;-86
2022/01/13 03:55:56;576914.00;1.92;994.37;0.00;0.00;0.62;;;;;1.50;1.00;;;;;;2257711;61;1219;-87
2022/01/13 03:59:03;403016.00;1.34;694.99;0.00;0.00;0.62;;;;;1.80;1.00;;;;;;2264865;61;2004;-87
2022/01/13 04:02:03;475447.00;1.58;819.56;0.00;0.00;0.62;;;;;2.20;1.00;;;;;;2262354;61;1172;-86
2022/01/13 04:04:33;849881.00;2.83;1468.26;16705.00;0.06;29.56;;;;;1.40;1.00;;;;;;2258165;61;1180;-87
2022/01/13 04:07:18;650997.00;2.17;1122.36;0.00;0.00;0.62;;;;;1.00;1.00;;;;;;2264532;61;1721;-86
2022/01/13 04:10:28;523898.00;1.75;902.98;0.00;0.00;0.62;;;;;0.90;1.00;;;;;;2255436;61;1311;-86
2022/01/13 04:12:59;538060.00;1.79;927.38;0.00;0.00;0.62;;;;;1.40;1.00;;;;;;2256101;61;1054;-85
2022/01/13 04:15:30;749864.00;2.50;1293.82;62102.00;0.21;108.11;;;;;1.40;1.00;;;;;;2252381;61;1252;-85
2022/01/13 04:17:58;444269.00;1.48;765.93;0.00;0.00;0.62;;;;;1.70;1.00;;;;;;2257823;61;1908;-86
2022/01/13 04:20:25;387423.00;1.29;668.18;0.00;0.00;0.62;;;;;2.70;1.00;;;;;;2258578;61;1302;-86
2022/01/13 04:23:02;615470.00;2.05;1060.94;0.00;0.00;0.62;;;;;2.70;1.00;;;;;;2259743;61;1697;-87
2022/01/13 04:25:34;642570.00;2.14;1107.78;0.00;0.00;0.62;;;;;2.10;1.00;;;;;;2259882;61;1053;-85
2022/01/13 04:28:15;511625.00;1.71;881.84;0.00;0.00;0.62;;;;;1.80;1.00;;;;;;2259804;61;992;-84
2022/01/13 04:30:49;521605.00;1.74;899.03;0.00;0.00;0.62;;;;;2.10;1.00;;;;;;2268483;61;1282;-86
2022/01/13 04:33:24;729738.00;2.43;1258.85;0.00;0.00;0.62;;;;;2.10;1.00;;;;;;2261052;61;1125;-85
2022/01/13 04:36:02;720281.00;2.40;1242.43;0.00;0.00;0.62;;;;;2.20;1.00;;;;;;2267086;61;1128;-86
2022/01/13 04:38:32;445067.00;1.48;767.30;0.00;0.00;0.62;;;;;2.20;1.00;;;;;;2266561;61;2014;-86
2022/01/13 04:41:04;726625.00;2.42;1253.44;0.00;0.00;0.62;;;;;1.70;1.00;;;;;;2255336;61;1457;-86
2022/01/13 04:43:36;429732.00;1.43;740.92;0.00;0.00;0.62;;;;;1.90;1.00;;;;;;2265978;61;1043;-86
2022/01/13 04:46:15;744543.00;2.48;1284.57;0.00;0.00;0.62;;;;;2.20;1.00;;;;;;2266060;61;1451;-85
2022/01/13 04:48:44;606213.00;2.02;1044.95;0.00;0.00;0.62;;;;;2.20;1.00;;;;;;2266630;61;1059;-86
2022/01/13 04:51:16;517322.00;1.72;891.65;0.00;0.00;0.62;;;;;2.40;1.00;;;;;;2266124;61;1465;-86
2022/01/13 04:53:56;373466.00;1.24;644.19;0.00;0.00;0.62;;;;;2.40;1.00;;;;;;2265883;61;1172;-86
2022/01/13 04:56:38;565838.00;1.89;975.27;0.00;0.00;0.62;;;;;2.20;1.00;;;;;;2266567;61;1236;-87
2022/01/13 04:59:08;500908.00;1.67;863.39;0.00;0.00;0.62;;;;;2.10;1.00;;;;;;2260845;61;1958;-85
2022/01/13 05:01:36;465854.00;1.55;803.06;0.00;0.00;0.62;;;;;2.00;1.00;;;;;;2260423;61;1657;-87
2022/01/13 05:04:04;637342.00;2.12;1098.74;0.00;0.00;0.62;;;;;1.90;1.00;;;;;;2259765;61;1750;-87
2022/01/13 05:06:38;743101.00;2.48;1282.06;13362.00;0.04;23.77;;;;;2.00;1.00;;;;;;2250702;61;1102;-87
2022/01/13 05:09:09;343734.00;1.15;593.09;0.00;0.00;0.62;;;;;2.50;1.00;;;;;;2259879;61;1620;-88
2022/01/13 05:11:39;628493.00;2.09;1083.44;0.00;0.00;0.62;;;;;2.70;1.00;;;;;;2259916;61;1151;-86
2022/01/13 05:14:15;544906.00;1.82;939.18;24908.00;0.08;43.77;;;;;2.40;1.00;;;;;;2260005;61;1213;-88
2022/01/13 05:16:57;598876.00;2.00;1032.28;41040.00;0.14;71.69;;;;;1.50;1.00;;;;;;2259519;61;1270;-86
2022/01/13 05:19:34;132430256.00;441.43;94110720.00;100717.00;0.34;174.81;;;;;1.70;1.00;;;;;;2260729;61;1966;-86
2022/01/13 05:22:17;352046.00;1.17;607.38;0.00;0.00;0.62;;;;;2.00;1.00;;;;;;2260493;61;1101;-86
2022/01/13 05:24:49;522734.00;1.74;900.97;0.00;0.00;0.62;;;;;2.00;1.00;;;;;;2261007;61;1157;-85
2022/01/13 05:27:18;552125.00;1.84;951.62;0.00;0.00;0.62;;;;;2.30;1.00;;;;;;2261917;61;1152;-85
2022/01/13 05:29:55;575758.00;1.92;992.38;0.00;0.00;0.62;;;;;2.20;1.00;;;;;;2255978;61;1302;-86
2022/01/13 05:32:22;820534.00;2.74;1416.96;102660.00;0.34;178.16;;;;;2.00;1.00;;;;;;2259641;61;986;-85
2022/01/13 05:35:01;838602.00;2.80;1448.53;90030.00;0.30;156.36;;;;;2.40;1.00;;;;;;2255153;61;1007;-85
2022/01/13 05:37:29;917339.00;3.06;1586.59;99180.00;0.33;172.16;;;;;4.20;1.00;;;;;;2255265;61;2001;-84
2022/01/13 05:39:58;1154846.00;3.85;2008.79;130363.00;0.43;225.96;;;;;5.20;1.00;;;;;;2255677;61;1354;-85
2022/01/13 05:42:25;1051083.00;3.50;1823.16;103935.00;0.35;180.36;;;;;5.40;1.00;;;;;;2254283;61;1623;-86
2022/01/13 05:44:55;894642.00;2.98;1546.71;100140.00;0.33;173.81;;;;;5.70;1.00;;;;;;2252558;61;1480;-86
2022/01/13 05:47:25;724361.00;2.41;1249.51;92816.00;0.31;161.17;;;;;6.50;1.00;;;;;;2254359;61;1648;-86
2022/01/13 05:49:52;866474.00;2.89;1497.31;96944.00;0.32;168.30;;;;;6.90;1.00;;;;;;2249572;61;1385;-86
2022/01/13 05:52:19;924024.00;3.08;1598.35;94493.00;0.31;164.07;;;;;6.30;1.00;;;;;;2251089;61;1202;-86
2022/01/13 05:54:47;951129.00;3.17;1646.10;102676.00;0.34;178.19;;;;;5.50;1.00;;;;;;2257170;61;1193;-86
2022/01/13 05:57:14;830964.00;2.77;1435.18;107377.00;0.36;186.30;;;;;4.60;1.00;;;;;;2257241;61;1163;-86
2022/01/13 05:59:44;756577.00;2.52;1305.50;84919.00;0.28;147.53;;;;;5.10;1.00;;;;;;2247337;61;1338;-87
2022/01/13 06:02:12;817190.00;2.72;1411.12;99591.00;0.33;172.87;;;;;5.50;1.00;;;;;;2257368;61;1113;-87
2022/01/13 06:04:39;805187.00;2.68;1390.17;81347.00;0.27;141.36;;;;;5.70;1.00;;;;;;2257384;61;1153;-87
2022/01/13 06:07:07;118161480.00;393.87;66828836.00;106242.00;0.35;184.35;;;;;5.40;1.00;;;;;;2257874;61;1164;-87
2022/01/13 06:09:34;1067979.00;3.56;1853.25;133451.00;0.44;231.28;;;;;5.40;1.00;;;;;;2265707;61;1372;-87
2022/01/13 06:12:03;1032840.00;3.44;1790.72;123339.00;0.41;213.84;;;;;4.90;1.00;;;;;;2265764;61;1193;-86
2022/01/13 06:14:30;1013388.00;3.38;1756.20;96814.00;0.32;168.07;;;;;4.50;1.00;;;;;;2257454;61;1125;-86
2022/01/13 06:16:57;834441.00;2.78;1441.26;84306.00;0.28;146.47;;;;;3.20;1.00;;;;;;2255100;61;1104;-85
2022/01/13 06:19:25;117655792.00;392.19;65973728.00;113191.00;0.38;196.34;;;;;2.50;1.00;;;;;;2254760;61;1990;-86
2022/01/13 06:21:53;1078657.00;3.60;1872.30;95756.00;0.32;166.25;;;;;1.80;1.00;;;;;;2254775;61;1204;-86
2022/01/13 06:24:20;1000214.00;3.33;1732.85;121371.00;0.40;210.45;;;;;1.40;1.00;;;;;;2255984;61;1683;-86
2022/01/13 06:26:47;959418.00;3.20;1660.73;99145.00;0.33;172.10;;;;;1.30;1.00;;;;;;2259378;61;1133;-86
2022/01/13 06:29:14;875365.00;2.92;1512.89;98860.00;0.33;171.60;;;;;1.40;1.00;;;;;;2259504;61;1305;-85
2022/01/13 06:31:41;733765.00;2.45;1265.84;95670.00;0.32;166.10;;;;;1.60;1.00;;;;;;2253880;61;956;-86
2022/01/13 06:34:09;806204.00;2.69;1391.95;101318.00;0.34;175.85;;;;;1.90;1.00;;;;;;2267300;61;1191;-86
2022/01/13 06:36:37;634306.00;2.11;1093.49;99245.00;0.33;172.27;;;;;3.00;1.00;;;;;;2262747;61;1096;-86
2022/01/13 06:39:04;754946.00;2.52;1302.66;98346.00;0.33;170.72;;;;;3.70;1.00;;;;;;2262653;61;2010;-86
2022/01/13 06:41:31;633297.00;2.11;1091.75;105643.00;0.35;183.31;;;;;3.30;1.00;;;;;;2251869;61;1275;-87
2022/01/13 06:43:58;941445.00;3.14;1629.03;71570.00;0.24;124.47;;;;;3.40;1.00;;;;;;2262346;61;1234;-87
2022/01/13 06:46:25;713051.00;2.38;1229.88;102602.00;0.34;178.06;;;;;3.50;1.00;;;;;;2262580;61;1192;-87
2022/01/13 06:48:52;650851.00;2.17;1122.11;98143.00;0.33;170.37;;;;;3.20;1.00;;;;;;2262395;61;1162;-87
2022/01/13 06:51:19;800141.00;2.67;1381.37;112346.00;0.37;194.88;;;;;2.70;1.00;;;;;;2255253;61;1531;-87
2022/01/13 06:53:47;727949.00;2.43;1255.74;100079.00;0.33;173.71;;;;;2.40;1.00;;;;;;2262327;61;1065;-86
2022/01/13 06:56:14;672302.00;2.24;1159.24;69296.00;0.23;120.54;;;;;2.60;1.00;;;;;;2262715;61;1118;-86
2022/01/13 06:58:44;760691.00;2.54;1312.65;95705.00;0.32;166.16;;;;;2.50;1.00;;;;;;2263148;61;2006;-87
2022/01/13 07:01:11;636471.00;2.12;1097.24;96936.00;0.32;168.28;;;;;2.40;1.00;;;;;;2263399;61;1496;-87
2022/01/13 07:03:38;842872.00;2.81;1456.00;86514.00;0.29;150.29;;;;;2.70;1.00;;;;;;2262456;61;1157;-87
2022/01/13 07:06:05;765005.00;2.55;1320.16;99887.00;0.33;173.38;;;;;2.90;1.00;;;;;;2263130;61;1826;-87
2022/01/13 07:08:33;740634.00;2.47;1277.78;107184.00;0.36;185.97;;;;;2.90;1.00;;;;;;2255913;61;1146;-87
2022/01/13 07:11:03;837820.00;2.79;1447.16;97297.00;0.32;168.91;;;;;3.00;1.00;;;;;;2264469;61;1337;-87
2022/01/13 07:13:30;689054.00;2.30;1188.26;95289.00;0.32;165.44;;;;;3.30;1.00;;;;;;2263434;61;1189;-86
2022/01/13 07:15:59;647820.00;2.16;1116.86;95198.00;0.32;165.28;;;;;3.70;1.00;;;;;;2263859;61;1160;-87
2022/01/13 07:18:26;688025.00;2.29;1186.48;78837.00;0.26;137.03;;;;;4.40;1.00;;;;;;2257285;61;2018;-87
2022/01/13 07:20:56;565250.00;1.88;974.25;101534.00;0.34;176.22;;;;;5.10;1.00;;;;;;2255665;61;1374;-87
2022/01/13 07:23:23;120078264.00;400.26;70137184.00;131783.00;0.44;228.40;;;;;5.50;1.00;;;;;;2261451;61;1135;-85
2022/01/13 07:25:50;662227.00;2.21;1141.80;96787.00;0.32;168.03;;;;;5.90;1.00;;;;;;2268412;61;1106;-87
2022/01/13 07:28:20;487691.00;1.63;840.63;104239.00;0.35;180.89;;;;;6.00;1.00;;;;;;2260570;61;1167;-86
2022/01/13 07:30:47;798266.00;2.66;1378.10;100186.00;0.33;173.89;;;;;5.50;1.00;;;;;;2259125;61;1828;-87
2022/01/13 07:33:14;480127.00;1.60;827.62;95105.00;0.32;165.12;;;;;6.00;1.00;;;;;;2259697;61;1219;-86
2022/01/13 07:35:41;666329.00;2.22;1148.90;119949.00;0.40;207.99;;;;;5.80;1.00;;;;;;2255836;61;1244;-87
2022/01/13 07:38:08;474114.00;1.58;817.27;96398.00;0.32;167.35;;;;;5.40;1.00;;;;;;2261840;61;1923;-86
2022/01/13 07:40:35;659612.00;2.20;1137.27;95991.00;0.32;166.65;;;;;5.00;1.00;;;;;;2262560;61;1294;-88
2022/01/13 07:43:02;543365.00;1.81;936.52;0.00;0.00;0.62;;;;;4.90;1.00;;;;;;2258786;61;1199;-87
2022/01/13 07:45:30;819591.00;2.73;1415.31;0.00;0.00;0.62;;;;;4.70;1.00;;;;;;2260807;61;1096;-87
2022/01/13 07:47:58;1080557.00;3.60;1875.69;0.00;0.00;0.62;;;;;4.40;1.00;;;;;;2264526;61;1738;-86
2022/01/13 07:50:25;118505024.00;395.02;67413952.00;117460952.00;391.54;65646216.00;;;;;4.10;1.00;;;;;;2266977;61;1745;-87
2022/01/13 07:52:53;1084175.00;3.61;1882.15;36705.00;0.12;64.19;;;;;3.70;1.00;;;;;;2267434;61;1135;-86
2022/01/13 07:55:20;729487.00;2.43;1258.41;0.00;0.00;0.62;;;;;3.60;1.00;;;;;;2267971;61;1695;-86
2022/01/13 07:57:47;951761.00;3.17;1647.22;0.00;0.00;0.62;;;;;3.20;1.00;;;;;;2267602;61;1752;-87
2022/01/13 08:00:15;1051549.00;3.51;1823.99;0.00;0.00;0.62;;;;;2.90;1.00;;;;;;2264744;61;2003;-87
2022/01/13 08:02:44;1199780.00;4.00;2089.82;8987.00;0.03;16.19;;;;;2.60;1.00;;;;;;2255475;61;1145;-87
2022/01/13 08:05:11;1079891.00;3.60;1874.50;0.00;0.00;0.62;;;;;2.20;1.00;;;;;;2255733;61;1114;-86
2022/01/13 08:07:38;1469040.00;4.90;2585.00;111112.00;0.37;192.75;;;;;2.40;1.00;;;;;;2250826;61;1062;-84
2022/01/13 08:10:06;571045.00;1.90;984.25;0.00;0.00;0.62;;;;;2.30;1.00;;;;;;2251774;61;1427;-85
2022/01/13 08:12:33;944026.00;3.15;1633.58;0.00;0.00;0.62;;;;;2.10;1.00;;;;;;2250204;61;1241;-84
2022/01/13 08:15:00;678324.00;2.26;1169.67;0.00;0.00;0.62;;;;;2.20;1.00;;;;;;2248685;61;1471;-83
2022/01/13 08:20:12;1161193.00;3.87;2020.21;127521.00;0.43;221.05;;;;;2.20;1.00;;;;;;2248335;61;1967;-85
2022/01/13 08:22:40;759928.00;2.53;1311.32;0.00;0.00;0.62;;;;;2.40;1.00;;;;;;2250221;61;1062;-87
2022/01/13 08:25:08;834002.00;2.78;1440.49;0.00;0.00;0.62;;;;;2.20;1.00;;;;;;2252070;61;1631;-86
2022/01/13 08:27:35;998430.00;3.33;1729.69;0.00;0.00;0.62;;;;;2.40;1.00;;;;;;2250287;61;1175;-87
2022/01/13 08:30:02;710432.00;2.37;1225.33;0.00;0.00;0.62;;;;;2.30;1.00;;;;;;2242118;62;1368;-86
2022/01/13 08:32:29;490789.00;1.64;845.97;0.00;0.00;0.62;;;;;2.60;1.00;;;;;;2243033;62;1770;-86
2022/01/13 08:34:58;467104.00;1.56;805.21;0.00;0.00;0.62;;;;;2.50;1.00;;;;;;2243652;62;1070;-87
2022/01/13 08:37:29;524874.00;1.75;904.66;67679.00;0.23;117.75;;;;;2.50;1.00;;;;;;2244096;62;1149;-86
2022/01/13 08:39:58;550954.00;1.84;949.60;0.00;0.00;0.62;;;;;2.50;1.00;;;;;;2240279;62;2009;-86
2022/01/13 08:42:26;593619.00;1.98;1023.20;0.00;0.00;0.62;;;;;2.90;1.00;;;;;;2243704;62;1380;-87
2022/01/13 08:44:55;517449.00;1.72;891.87;0.00;0.00;0.62;;;;;3.00;1.00;;;;;;2247528;61;1154;-86
2022/01/13 08:47:23;590472.00;1.97;1017.77;0.00;0.00;0.62;;;;;2.80;1.00;;;;;;2256410;61;1053;-86
2022/01/13 08:49:50;607444.00;2.02;1047.08;0.00;0.00;0.62;;;;;2.80;1.00;;;;;;2261013;61;1451;-86
2022/01/13 08:52:17;118020952.00;393.40;66590456.00;0.00;0.00;0.62;;;;;2.80;1.00;;;;;;2260423;61;1121;-86
2022/01/13 08:57:45;789296.00;2.63;1362.46;147052.00;0.49;254.73;;;;;2.60;1.00;;;;;;2250413;61;944;-86
2022/01/13 09:00:17;126276136.00;420.92;81579400.00;127855.00;0.43;221.63;;;;;2.70;1.00;;;;;;2252402;61;2095;-86
2022/01/13 09:02:50;727826.00;2.43;1255.53;0.00;0.00;0.62;;;;;3.30;1.00;;;;;;2251307;61;1227;-86
2022/01/13 09:05:22;977411.00;3.26;1692.50;54197.00;0.18;94.44;;;;;3.80;1.00;;;;;;2251307;61;1216;-86
2022/01/13 09:07:49;790850.00;2.64;1365.17;0.00;0.00;0.62;;;;;4.60;1.00;;;;;;2251758;61;1103;-86
2022/01/13 09:10:21;1125303.00;3.75;1955.73;0.00;0.00;0.62;;;;;4.10;1.00;;;;;;2250636;61;1461;-87
2022/01/13 09:12:48;721696.00;2.41;1244.88;0.00;0.00;0.62;;;;;3.70;1.00;;;;;;2241545;61;1173;-87
2022/01/13 09:15:18;874103.00;2.91;1510.68;0.00;0.00;0.62;;;;;3.70;1.00;;;;;;2251319;61;1150;-87
2022/01/13 09:17:51;906223.00;3.02;1567.05;0.00;0.00;0.62;;;;;4.30;1.00;;;;;;2250678;61;1058;-87
2022/01/13 09:20:19;819621.00;2.73;1415.36;0.00;0.00;0.62;;;;;4.80;1.00;;;;;;2251124;61;1949;-87
2022/01/13 09:22:51;1024920.00;3.42;1776.66;0.00;0.00;0.62;;;;;5.30;1.00;;;;;;2251282;61;1268;-87
2022/01/13 09:25:24;629606.00;2.10;1085.37;0.00;0.00;0.62;;;;;5.90;1.00;;;;;;2254763;61;1632;-87
2022/01/13 09:27:51;679739.00;2.27;1172.12;0.00;0.00;0.62;;;;;5.90;1.00;;;;;;2257333;61;1105;-87
2022/01/13 09:30:21;686968.00;2.29;1184.65;0.00;0.00;0.62;;;;;6.00;1.00;;;;;;2267524;61;1357;-87
2022/01/13 09:32:48;935165.00;3.12;1617.97;28244.00;0.09;49.54;;;;;6.00;1.00;;;;;;2262988;61;1236;-87
2022/01/13 09:35:18;801901.00;2.67;1384.44;0.00;0.00;0.62;;;;;6.20;1.00;;;;;;2253078;61;1164;-87
2022/01/13 09:37:49;461839.00;1.54;796.15;0.00;0.00;0.62;;;;;5.90;1.00;;;;;;2264405;61;1108;-87
2022/01/13 09:40:19;448328.00;1.49;772.91;0.00;0.00;0.62;;;;;5.80;1.00;;;;;;2263792;61;1935;-87
2022/01/13 09:42:49;553580.00;1.85;954.13;0.00;0.00;0.62;;;;;6.60;1.00;;;;;;2264180;61;1078;-88
2022/01/13 09:45:19;461819.00;1.54;796.11;0.00;0.00;0.62;;;;;6.60;1.00;;;;;;2264075;61;1100;-87
2022/01/13 09:47:48;288503.00;0.96;498.16;0.00;0.00;0.62;;;;;7.10;1.00;;;;;;2253396;61;1173;-88
2022/01/13 09:50:20;377987.00;1.26;651.97;0.00;0.00;0.62;;;;;7.10;1.00;;;;;;2263881;61;1353;-87
2022/01/13 09:52:51;673974.00;2.25;1162.14;0.00;0.00;0.62;;;;;7.20;1.00;;;;;;2264009;61;1569;-88
2022/01/13 09:55:20;410680.00;1.37;708.17;0.00;0.00;0.62;;;;;7.70;1.00;;;;;;2263585;61;1814;-88
2022/01/13 09:57:51;374360.00;1.25;645.73;0.00;0.00;0.62;;;;;7.60;1.00;;;;;;2263513;61;1216;-88
2022/01/13 10:00:24;313204.00;1.04;540.62;0.00;0.00;0.62;;;;;7.90;1.00;;;;;;2263881;61;1992;-88
2022/01/13 10:02:52;405134.00;1.35;698.63;0.00;0.00;0.62;;;;;7.70;1.00;;;;;;2264114;61;1916;-88
2022/01/13 10:05:20;505964.00;1.69;872.09;0.00;0.00;0.62;;;;;7.50;1.00;;;;;;2264352;61;1698;-88
2022/01/13 10:07:56;557538.00;1.86;960.96;0.00;0.00;0.62;;;;;7.40;1.00;;;;;;2266287;61;1735;-88
2022/01/13 10:10:34;524386.00;1.75;903.82;20800.00;0.07;36.66;;;;;7.00;1.00;;;;;;2268145;61;1643;-88
2022/01/13 10:13:13;429317.00;1.43;740.21;0.00;0.00;0.62;;;;;7.10;1.00;;;;;;2268170;61;1753;-87
2022/01/13 10:18:40;372549.00;1.24;642.62;0.00;0.00;0.62;;;;;6.70;1.00;;;;;;2254800;61;930;-87
2022/01/13 10:21:08;593427.00;1.98;1022.87;0.00;0.00;0.62;;;;;5.60;1.00;;;;;;2250520;61;1329;-88
2022/01/13 10:23:37;420448.00;1.40;724.96;0.00;0.00;0.62;;;;;5.10;1.00;;;;;;2254164;61;1118;-88
2022/01/13 10:26:12;509655.00;1.70;878.45;9277.00;0.03;16.70;;;;;5.90;1.00;;;;;;2254185;61;1220;-88
2022/01/13 10:28:42;554404.00;1.85;955.55;0.00;0.00;0.62;;;;;6.60;1.00;;;;;;2254327;61;1172;-88
2022/01/13 10:31:12;626959.00;2.09;1080.79;0.00;0.00;0.62;;;;;6.50;1.00;;;;;;2254089;61;1633;-88
2022/01/13 10:33:39;454639.00;1.52;783.76;0.00;0.00;0.62;;;;;6.90;1.00;;;;;;2259458;61;1159;-88
2022/01/13 10:36:11;395081.00;1.32;681.35;0.00;0.00;0.62;;;;;7.10;1.00;;;;;;2264423;61;1762;-88
2022/01/13 10:38:59;499434.00;1.66;860.85;0.00;0.00;0.62;;;;;6.90;1.00;;;;;;2260058;61;1184;-87
2022/01/13 10:41:37;600351.00;2.00;1034.83;27539.00;0.09;48.32;;;;;6.30;1.00;;;;;;2263837;61;1816;-88
2022/01/13 10:44:19;457061.00;1.52;787.93;0.00;0.00;0.62;;;;;6.70;1.00;;;;;;2264785;61;1239;-86
2022/01/13 10:47:00;337335.00;1.12;582.09;0.00;0.00;0.62;;;;;6.70;1.00;;;;;;2267368;61;1631;-87
2022/01/13 10:49:35;474436.00;1.58;817.82;0.00;0.00;0.62;;;;;6.70;1.00;;;;;;2260215;61;1421;-84
2022/01/13 10:52:24;578797.00;1.93;997.62;0.00;0.00;0.62;;;;;6.90;1.00;;;;;;2256281;61;1019;-84
2022/01/13 10:54:53;516405.00;1.72;890.07;111318.00;0.37;193.10;;;;;6.40;1.00;;;;;;2252813;61;1157;-87
2022/01/13 10:57:26;793040.00;2.64;1368.99;95671.00;0.32;166.10;;;;;6.50;1.00;;;;;;2253358;61;1482;-87
2022/01/13 11:00:18;865765.00;2.89;1496.07;81395.00;0.27;141.45;;;;;6.10;1.00;;;;;;2249547;61;1922;-88
2022/01/13 11:03:01;1301855.00;4.34;2275.50;126950.00;0.42;220.07;;;;;6.10;1.00;;;;;;2249641;61;1152;-87
2022/01/13 11:05:30;836564.00;2.79;1444.97;25869.00;0.09;45.43;;;;;6.10;1.00;;;;;;2248802;61;1144;-88
2022/01/13 11:08:06;986643.00;3.29;1708.83;0.00;0.00;0.62;;;;;5.90;1.00;;;;;;2249686;61;1162;-88
2022/01/13 11:10:35;775475.00;2.58;1338.38;0.00;0.00;0.62;;;;;5.50;1.00;;;;;;2249950;61;1358;-87
2022/01/13 11:13:07;1098017.00;3.66;1906.88;140120.00;0.47;242.78;;;;;5.70;1.00;;;;;;2250049;61;1918;-87
2022/01/13 11:15:50;1011992.00;3.37;1753.72;102046.00;0.34;177.10;;;;;5.80;1.00;;;;;;2249726;61;1067;-87
2022/01/13 11:18:22;602845.00;2.01;1039.13;0.00;0.00;0.62;;;;;5.90;1.00;;;;;;2253330;61;1230;-87
2022/01/13 11:20:50;666550.00;2.22;1149.28;0.00;0.00;0.62;;;;;6.30;1.00;;;;;;2246688;61;2006;-88
2022/01/13 11:23:18;695591.00;2.32;1199.59;0.00;0.00;0.62;;;;;6.50;1.00;;;;;;2253264;61;1101;-87
2022/01/13 11:25:48;532105.00;1.77;917.12;0.00;0.00;0.62;;;;;6.90;1.00;;;;;;2251902;61;1621;-87
2022/01/13 11:28:19;771322.00;2.57;1331.15;0.00;0.00;0.62;;;;;7.70;1.00;;;;;;2248294;61;1114;-87
2022/01/13 11:30:50;569559.00;1.90;981.69;0.00;0.00;0.62;;;;;7.80;1.00;;;;;;2251584;61;1244;-88
2022/01/13 11:33:22;509037.00;1.70;877.38;0.00;0.00;0.62;;;;;7.50;1.00;;;;;;2252927;61;1323;-87
2022/01/13 11:35:59;453103.00;1.51;781.12;0.00;0.00;0.62;;;;;7.50;1.00;;;;;;2252719;61;1155;-88
2022/01/13 11:38:30;687244.00;2.29;1185.13;91147.00;0.30;158.29;;;;;7.10;1.00;;;;;;2253062;61;1108;-87
2022/01/13 11:41:02;548324.00;1.83;945.07;0.00;0.00;0.62;;;;;7.30;1.00;;;;;;2253041;61;2010;-87
2022/01/13 11:43:39;491351.00;1.64;846.93;0.00;0.00;0.62;;;;;7.50;1.00;;;;;;2252703;61;1095;-87
2022/01/13 11:46:18;478941.00;1.60;825.58;0.00;0.00;0.62;;;;;7.20;1.00;;;;;;2254457;61;1116;-87
2022/01/13 11:49:02;556069.00;1.85;958.42;0.00;0.00;0.62;;;;;7.00;1.00;;;;;;2261314;61;1513;-88
2022/01/13 11:51:44;575615.00;1.92;992.13;0.00;0.00;0.62;;;;;7.30;1.00;;;;;;2265660;61;1582;-88
2022/01/13 11:54:24;433358.00;1.44;747.16;0.00;0.00;0.62;;;;;7.40;1.00;;;;;;2265625;61;1184;-87
2022/01/13 11:57:10;577773.00;1.93;995.86;24390.00;0.08;42.87;;;;;6.00;1.00;;;;;;2261746;61;1145;-88
2022/01/13 12:00:03;611635.00;2.04;1054.31;0.00;0.00;0.62;;;;;5.80;1.00;;;;;;2260492;61;1935;-86
2022/01/13 12:02:42;548706.00;1.83;945.73;84052.00;0.28;146.04;;;;;5.50;1.00;;;;;;2261101;61;1075;-87